sensor_id;sensor_type;location;lat;lon;timestamp;temperature;humidity
60039;DHT22;45916;52.734;6.544;2022-09-16T00:00:55;11.20;99.90
60039;DHT22;45916;52.734;6.544;2022-09-16T00:03:21;11.20;99.90
60039;DHT22;45916;52.734;6.544;2022-09-16T00:05:49;11.20;99.90
60039;DHT22;45916;52.734;6.544;2022-09-16T00:08:16;11.20;99.90
60039;DHT22;45916;52.734;6.544;2022-09-16T00:10:42;11.20;99.90
60039;DHT22;45916;52.734;6.544;2022-09-16T00:13:09;11.30;99.90
60039;DHT22;45916;52.734;6.544;2022-09-16T00:15:35;11.40;99.90
60039;DHT22;45916;52.734;6.544;2022-09-16T00:18:01;11.60;99.90
60039;DHT22;45916;52.734;6.544;2022-09-16T00:20:26;11.70;99.90
60039;DHT22;45916;52.734;6.544;2022-09-16T00:22:53;11.70;99.90
60039;DHT22;45916;52.734;6.544;2022-09-16T00:25:18;11.80;99.90
60039;DHT22;45916;52.734;6.544;2022-09-16T00:27:47;11.90;99.90
60039;DHT22;45916;52.734;6.544;2022-09-16T00:30:14;12.00;99.90
60039;DHT22;45916;52.734;6.544;2022-09-16T00:32:40;12.00;99.90
60039;DHT22;45916;52.734;6.544;2022-09-16T00:35:06;12.10;99.90
60039;DHT22;45916;52.734;6.544;2022-09-16T00:37:33;12.10;99.90
60039;DHT22;45916;52.734;6.544;2022-09-16T00:39:58;12.20;99.90
60039;DHT22;45916;52.734;6.544;2022-09-16T00:42:24;12.20;99.90
60039;DHT22;45916;52.734;6.544;2022-09-16T00:45:02;12.20;99.90
60039;DHT22;45916;52.734;6.544;2022-09-16T00:50:06;12.30;99.90
60039;DHT22;45916;52.734;6.544;2022-09-16T00:52:32;12.30;99.90
60039;DHT22;45916;52.734;6.544;2022-09-16T00:55:01;12.30;99.90
60039;DHT22;45916;52.734;6.544;2022-09-16T00:57:28;12.40;99.90
60039;DHT22;45916;52.734;6.544;2022-09-16T00:59:55;12.40;99.90
60039;DHT22;45916;52.734;6.544;2022-09-16T01:02:23;12.40;99.90
60039;DHT22;45916;52.734;6.544;2022-09-16T01:05:19;12.50;99.90
60039;DHT22;45916;52.734;6.544;2022-09-16T01:07:47;12.50;99.90
60039;DHT22;45916;52.734;6.544;2022-09-16T01:10:16;12.60;99.90
60039;DHT22;45916;52.734;6.544;2022-09-16T01:12:44;12.60;99.90
60039;DHT22;45916;52.734;6.544;2022-09-16T01:15:10;12.50;99.90
60039;DHT22;45916;52.734;6.544;2022-09-16T01:31:40;12.50;99.90
60039;DHT22;45916;52.734;6.544;2022-09-16T01:34:25;12.30;99.90
60039;DHT22;45916;52.734;6.544;2022-09-16T01:45:07;12.10;99.90
60039;DHT22;45916;52.734;6.544;2022-09-16T01:47:49;12.10;99.90
60039;DHT22;45916;52.734;6.544;2022-09-16T01:50:29;12.20;99.90
60039;DHT22;45916;52.734;6.544;2022-09-16T01:53:17;12.20;99.90
60039;DHT22;45916;52.734;6.544;2022-09-16T01:55:53;12.20;99.90
60039;DHT22;45916;52.734;6.544;2022-09-16T01:58:38;12.30;99.90
60039;DHT22;45916;52.734;6.544;2022-09-16T02:01:14;12.20;99.90
60039;DHT22;45916;52.734;6.544;2022-09-16T02:03:44;12.20;99.90
60039;DHT22;45916;52.734;6.544;2022-09-16T02:06:16;12.10;99.90
60039;DHT22;45916;52.734;6.544;2022-09-16T02:11:15;12.10;99.90
60039;DHT22;45916;52.734;6.544;2022-09-16T02:13:46;12.10;99.90
60039;DHT22;45916;52.734;6.544;2022-09-16T02:16:39;12.10;99.90
60039;DHT22;45916;52.734;6.544;2022-09-16T02:19:18;12.10;99.90
60039;DHT22;45916;52.734;6.544;2022-09-16T02:21:46;12.10;99.90
60039;DHT22;45916;52.734;6.544;2022-09-16T02:24:16;12.10;99.90
60039;DHT22;45916;52.734;6.544;2022-09-16T02:26:46;12.10;99.90
60039;DHT22;45916;52.734;6.544;2022-09-16T02:29:16;12.10;99.90
60039;DHT22;45916;52.734;6.544;2022-09-16T02:31:44;12.10;99.90
60039;DHT22;45916;52.734;6.544;2022-09-16T02:34:22;12.10;99.90
60039;DHT22;45916;52.734;6.544;2022-09-16T02:36:52;12.00;99.90
60039;DHT22;45916;52.734;6.544;2022-09-16T02:39:27;12.10;99.90
60039;DHT22;45916;52.734;6.544;2022-09-16T02:41:54;12.10;99.90
60039;DHT22;45916;52.734;6.544;2022-09-16T02:44:23;12.10;99.90
60039;DHT22;45916;52.734;6.544;2022-09-16T02:57:07;11.80;99.90
60039;DHT22;45916;52.734;6.544;2022-09-16T02:59:33;11.70;99.90
60039;DHT22;45916;52.734;6.544;2022-09-16T03:01:59;11.60;99.90
60039;DHT22;45916;52.734;6.544;2022-09-16T03:04:25;11.60;99.90
60039;DHT22;45916;52.734;6.544;2022-09-16T03:06:52;11.50;99.90
60039;DHT22;45916;52.734;6.544;2022-09-16T03:09:18;11.40;99.90
60039;DHT22;45916;52.734;6.544;2022-09-16T03:19:58;11.60;99.90
60039;DHT22;45916;52.734;6.544;2022-09-16T03:25:36;11.70;99.90
60039;DHT22;45916;52.734;6.544;2022-09-16T03:28:24;11.80;99.90
60039;DHT22;45916;52.734;6.544;2022-09-16T03:36:11;11.80;99.90
60039;DHT22;45916;52.734;6.544;2022-09-16T03:38:40;11.80;99.90
60039;DHT22;45916;52.734;6.544;2022-09-16T03:41:07;11.80;99.90
60039;DHT22;45916;52.734;6.544;2022-09-16T03:43:34;11.80;99.90
60039;DHT22;45916;52.734;6.544;2022-09-16T03:46:00;11.80;99.90
60039;DHT22;45916;52.734;6.544;2022-09-16T03:48:26;11.90;99.90
60039;DHT22;45916;52.734;6.544;2022-09-16T03:50:52;11.90;99.90
60039;DHT22;45916;52.734;6.544;2022-09-16T03:53:18;11.80;99.90
60039;DHT22;45916;52.734;6.544;2022-09-16T03:55:43;11.70;99.90
60039;DHT22;45916;52.734;6.544;2022-09-16T03:58:09;11.60;99.90
60039;DHT22;45916;52.734;6.544;2022-09-16T04:00:35;11.60;99.90
60039;DHT22;45916;52.734;6.544;2022-09-16T04:03:01;11.50;99.90
60039;DHT22;45916;52.734;6.544;2022-09-16T04:05:27;11.50;99.90
60039;DHT22;45916;52.734;6.544;2022-09-16T04:07:53;11.40;99.90
60039;DHT22;45916;52.734;6.544;2022-09-16T04:10:18;11.50;99.90
60039;DHT22;45916;52.734;6.544;2022-09-16T04:12:44;11.60;99.90
60039;DHT22;45916;52.734;6.544;2022-09-16T04:15:10;11.70;99.90
60039;DHT22;45916;52.734;6.544;2022-09-16T04:17:36;11.70;99.90
60039;DHT22;45916;52.734;6.544;2022-09-16T04:20:03;11.70;99.90
60039;DHT22;45916;52.734;6.544;2022-09-16T04:22:30;11.70;99.90
60039;DHT22;45916;52.734;6.544;2022-09-16T04:24:56;11.70;99.90
60039;DHT22;45916;52.734;6.544;2022-09-16T04:27:22;11.70;99.90
60039;DHT22;45916;52.734;6.544;2022-09-16T04:29:48;11.80;99.90
60039;DHT22;45916;52.734;6.544;2022-09-16T04:32:14;11.70;99.90
60039;DHT22;45916;52.734;6.544;2022-09-16T04:34:40;11.80;99.90
60039;DHT22;45916;52.734;6.544;2022-09-16T04:37:06;11.80;99.90
60039;DHT22;45916;52.734;6.544;2022-09-16T04:39:32;11.70;99.90
60039;DHT22;45916;52.734;6.544;2022-09-16T04:41:57;11.60;99.90
60039;DHT22;45916;52.734;6.544;2022-09-16T04:44:24;11.50;99.90
60039;DHT22;45916;52.734;6.544;2022-09-16T04:46:51;11.40;99.90
60039;DHT22;45916;52.734;6.544;2022-09-16T04:49:17;11.40;99.90
60039;DHT22;45916;52.734;6.544;2022-09-16T04:51:43;11.30;99.90
60039;DHT22;45916;52.734;6.544;2022-09-16T04:54:08;11.20;99.90
60039;DHT22;45916;52.734;6.544;2022-09-16T04:56:36;11.30;99.90
60039;DHT22;45916;52.734;6.544;2022-09-16T04:59:03;11.20;99.90
60039;DHT22;45916;52.734;6.544;2022-09-16T05:01:35;11.20;99.90
60039;DHT22;45916;52.734;6.544;2022-09-16T05:04:03;11.10;99.90
60039;DHT22;45916;52.734;6.544;2022-09-16T05:06:31;11.00;99.90
60039;DHT22;45916;52.734;6.544;2022-09-16T05:08:57;10.90;99.90
60039;DHT22;45916;52.734;6.544;2022-09-16T05:11:27;10.90;99.90
60039;DHT22;45916;52.734;6.544;2022-09-16T05:13:57;10.90;99.90
60039;DHT22;45916;52.734;6.544;2022-09-16T05:16:23;10.90;99.90
60039;DHT22;45916;52.734;6.544;2022-09-16T05:18:50;11.00;99.90
60039;DHT22;45916;52.734;6.544;2022-09-16T05:21:18;11.00;99.90
60039;DHT22;45916;52.734;6.544;2022-09-16T05:23:45;11.00;99.90
60039;DHT22;45916;52.734;6.544;2022-09-16T05:26:13;11.00;99.90
60039;DHT22;45916;52.734;6.544;2022-09-16T05:28:39;11.00;99.90
60039;DHT22;45916;52.734;6.544;2022-09-16T05:31:16;11.00;99.90
60039;DHT22;45916;52.734;6.544;2022-09-16T05:33:45;10.90;99.90
60039;DHT22;45916;52.734;6.544;2022-09-16T05:36:13;10.90;99.90
60039;DHT22;45916;52.734;6.544;2022-09-16T05:38:39;10.90;99.90
60039;DHT22;45916;52.734;6.544;2022-09-16T05:41:05;10.90;99.90
60039;DHT22;45916;52.734;6.544;2022-09-16T05:43:32;10.90;99.90
60039;DHT22;45916;52.734;6.544;2022-09-16T05:45:58;11.00;99.90
60039;DHT22;45916;52.734;6.544;2022-09-16T05:48:24;11.10;99.90
60039;DHT22;45916;52.734;6.544;2022-09-16T05:50:55;11.70;99.90
60039;DHT22;45916;52.734;6.544;2022-09-16T05:53:22;12.60;99.90
60039;DHT22;45916;52.734;6.544;2022-09-16T05:56:09;13.70;99.90
60039;DHT22;45916;52.734;6.544;2022-09-16T05:58:36;14.80;99.90
60039;DHT22;45916;52.734;6.544;2022-09-16T06:01:08;16.00;99.90
60039;DHT22;45916;52.734;6.544;2022-09-16T06:03:36;17.10;99.90
60039;DHT22;45916;52.734;6.544;2022-09-16T06:06:12;18.10;99.90
60039;DHT22;45916;52.734;6.544;2022-09-16T06:08:39;18.80;99.90
60039;DHT22;45916;52.734;6.544;2022-09-16T06:11:09;19.50;99.90
60039;DHT22;45916;52.734;6.544;2022-09-16T06:13:36;20.30;99.90
60039;DHT22;45916;52.734;6.544;2022-09-16T06:16:03;20.80;99.90
60039;DHT22;45916;52.734;6.544;2022-09-16T06:18:30;21.10;99.90
60039;DHT22;45916;52.734;6.544;2022-09-16T06:20:57;21.50;97.00
60039;DHT22;45916;52.734;6.544;2022-09-16T06:23:23;21.10;94.30
60039;DHT22;45916;52.734;6.544;2022-09-16T06:26:05;20.40;95.80
60039;DHT22;45916;52.734;6.544;2022-09-16T06:28:31;19.70;97.20
60039;DHT22;45916;52.734;6.544;2022-09-16T06:31:09;19.40;99.90
60039;DHT22;45916;52.734;6.544;2022-09-16T06:33:35;20.10;98.80
60039;DHT22;45916;52.734;6.544;2022-09-16T06:36:03;20.60;97.00
60039;DHT22;45916;52.734;6.544;2022-09-16T06:38:29;21.20;94.00
60039;DHT22;45916;52.734;6.544;2022-09-16T06:40:58;21.30;93.20
60039;DHT22;45916;52.734;6.544;2022-09-16T06:43:24;21.20;91.60
60039;DHT22;45916;52.734;6.544;2022-09-16T06:45:50;20.90;90.90
60039;DHT22;45916;52.734;6.544;2022-09-16T06:48:15;20.80;93.00
60039;DHT22;45916;52.734;6.544;2022-09-16T06:50:41;21.20;91.30
60039;DHT22;45916;52.734;6.544;2022-09-16T06:53:06;21.40;91.40
60039;DHT22;45916;52.734;6.544;2022-09-16T06:55:32;22.30;89.90
60039;DHT22;45916;52.734;6.544;2022-09-16T06:57:59;23.10;83.80
60039;DHT22;45916;52.734;6.544;2022-09-16T07:00:24;24.30;77.10
60039;DHT22;45916;52.734;6.544;2022-09-16T07:02:50;25.50;74.80
60039;DHT22;45916;52.734;6.544;2022-09-16T07:05:16;26.70;62.30
60039;DHT22;45916;52.734;6.544;2022-09-16T07:07:41;27.40;57.90
60039;DHT22;45916;52.734;6.544;2022-09-16T07:10:07;28.10;54.80
60039;DHT22;45916;52.734;6.544;2022-09-16T07:12:33;28.60;53.70
60039;DHT22;45916;52.734;6.544;2022-09-16T07:14:59;29.20;52.90
60039;DHT22;45916;52.734;6.544;2022-09-16T07:17:24;29.50;49.60
60039;DHT22;45916;52.734;6.544;2022-09-16T07:19:52;28.70;49.40
60039;DHT22;45916;52.734;6.544;2022-09-16T07:22:18;27.70;50.20
60039;DHT22;45916;52.734;6.544;2022-09-16T07:24:43;27.30;52.10
60039;DHT22;45916;52.734;6.544;2022-09-16T07:27:10;27.60;52.20
60039;DHT22;45916;52.734;6.544;2022-09-16T07:29:36;28.30;50.80
60039;DHT22;45916;52.734;6.544;2022-09-16T07:32:02;29.20;50.30
60039;DHT22;45916;52.734;6.544;2022-09-16T07:34:27;30.00;48.10
60039;DHT22;45916;52.734;6.544;2022-09-16T07:36:53;30.50;46.10
60039;DHT22;45916;52.734;6.544;2022-09-16T07:39:19;30.70;46.00
60039;DHT22;45916;52.734;6.544;2022-09-16T07:41:46;31.20;45.80
60039;DHT22;45916;52.734;6.544;2022-09-16T07:44:14;31.80;44.90
60039;DHT22;45916;52.734;6.544;2022-09-16T07:46:40;32.40;44.80
60039;DHT22;45916;52.734;6.544;2022-09-16T07:49:08;32.70;44.90
60039;DHT22;45916;52.734;6.544;2022-09-16T07:51:35;33.40;43.10
60039;DHT22;45916;52.734;6.544;2022-09-16T07:54:06;33.90;41.80
60039;DHT22;45916;52.734;6.544;2022-09-16T07:56:34;33.90;41.40
60039;DHT22;45916;52.734;6.544;2022-09-16T07:59:02;34.30;41.20
60039;DHT22;45916;52.734;6.544;2022-09-16T08:01:28;34.30;40.30
60039;DHT22;45916;52.734;6.544;2022-09-16T08:03:55;34.70;40.10
60039;DHT22;45916;52.734;6.544;2022-09-16T08:06:24;34.90;41.60
60039;DHT22;45916;52.734;6.544;2022-09-16T08:08:52;35.20;39.00
60039;DHT22;45916;52.734;6.544;2022-09-16T08:11:18;34.60;38.70
60039;DHT22;45916;52.734;6.544;2022-09-16T08:13:44;34.60;39.20
60039;DHT22;45916;52.734;6.544;2022-09-16T08:16:16;34.70;39.30
60039;DHT22;45916;52.734;6.544;2022-09-16T08:18:42;35.00;39.10
60039;DHT22;45916;52.734;6.544;2022-09-16T08:21:10;35.20;38.00
60039;DHT22;45916;52.734;6.544;2022-09-16T08:23:37;34.90;38.50
60039;DHT22;45916;52.734;6.544;2022-09-16T08:26:03;35.00;37.60
60039;DHT22;45916;52.734;6.544;2022-09-16T08:28:29;34.80;37.90
60039;DHT22;45916;52.734;6.544;2022-09-16T08:30:58;34.90;38.60
60039;DHT22;45916;52.734;6.544;2022-09-16T08:33:25;35.30;38.70
60039;DHT22;45916;52.734;6.544;2022-09-16T08:35:59;35.70;37.20
60039;DHT22;45916;52.734;6.544;2022-09-16T08:38:25;35.80;38.30
60039;DHT22;45916;52.734;6.544;2022-09-16T08:43:47;36.60;36.90
60039;DHT22;45916;52.734;6.544;2022-09-16T08:46:25;36.60;34.90
60039;DHT22;45916;52.734;6.544;2022-09-16T08:49:00;36.50;35.50
60039;DHT22;45916;52.734;6.544;2022-09-16T08:51:27;36.20;35.60
60039;DHT22;45916;52.734;6.544;2022-09-16T08:53:57;36.40;36.20
60039;DHT22;45916;52.734;6.544;2022-09-16T08:56:24;36.70;36.50
60039;DHT22;45916;52.734;6.544;2022-09-16T08:58:54;36.10;35.70
60039;DHT22;45916;52.734;6.544;2022-09-16T09:04:12;31.90;37.70
60039;DHT22;45916;52.734;6.544;2022-09-16T09:12:34;25.00;47.10
60039;DHT22;45916;52.734;6.544;2022-09-16T09:26:37;29.70;47.30
60039;DHT22;45916;52.734;6.544;2022-09-16T09:35:05;33.70;40.10
60039;DHT22;45916;52.734;6.544;2022-09-16T09:37:48;34.30;37.70
60039;DHT22;45916;52.734;6.544;2022-09-16T09:43:08;34.80;35.70
60039;DHT22;45916;52.734;6.544;2022-09-16T09:45:42;34.70;35.00
60039;DHT22;45916;52.734;6.544;2022-09-16T09:48:15;34.50;36.00
60039;DHT22;45916;52.734;6.544;2022-09-16T09:50:44;34.40;34.60
60039;DHT22;45916;52.734;6.544;2022-09-16T09:55:39;33.50;35.40
60039;DHT22;45916;52.734;6.544;2022-09-16T10:00:39;32.50;35.90
60039;DHT22;45916;52.734;6.544;2022-09-16T10:03:10;31.20;36.00
60039;DHT22;45916;52.734;6.544;2022-09-16T10:05:37;30.30;37.40
60039;DHT22;45916;52.734;6.544;2022-09-16T10:10:49;30.10;38.30
60039;DHT22;45916;52.734;6.544;2022-09-16T10:13:16;29.10;38.90
60039;DHT22;45916;52.734;6.544;2022-09-16T10:15:42;28.80;39.40
60039;DHT22;45916;52.734;6.544;2022-09-16T10:18:28;27.70;40.70
60039;DHT22;45916;52.734;6.544;2022-09-16T10:21:03;27.90;42.30
60039;DHT22;45916;52.734;6.544;2022-09-16T10:23:30;28.70;42.30
60039;DHT22;45916;52.734;6.544;2022-09-16T10:26:05;28.80;40.50
60039;DHT22;45916;52.734;6.544;2022-09-16T10:28:31;28.70;40.60
60039;DHT22;45916;52.734;6.544;2022-09-16T10:30:58;29.30;40.60
60039;DHT22;45916;52.734;6.544;2022-09-16T10:33:34;30.10;40.20
60039;DHT22;45916;52.734;6.544;2022-09-16T10:36:02;29.80;40.30
60039;DHT22;45916;52.734;6.544;2022-09-16T10:38:42;30.10;39.90
60039;DHT22;45916;52.734;6.544;2022-09-16T10:41:13;29.70;40.20
60039;DHT22;45916;52.734;6.544;2022-09-16T10:43:49;28.40;41.20
60039;DHT22;45916;52.734;6.544;2022-09-16T10:46:16;27.10;42.40
60039;DHT22;45916;52.734;6.544;2022-09-16T10:48:43;26.00;44.40
60039;DHT22;45916;52.734;6.544;2022-09-16T10:51:25;25.20;45.10
60039;DHT22;45916;52.734;6.544;2022-09-16T10:53:54;24.50;46.70
60039;DHT22;45916;52.734;6.544;2022-09-16T10:56:26;24.30;47.50
60039;DHT22;45916;52.734;6.544;2022-09-16T10:59:05;24.70;47.80
60039;DHT22;45916;52.734;6.544;2022-09-16T12:32:34;19.30;80.20
60039;DHT22;45916;52.734;6.544;2022-09-16T12:35:09;18.80;84.60
60039;DHT22;45916;52.734;6.544;2022-09-16T12:37:48;18.10;89.00
60039;DHT22;45916;52.734;6.544;2022-09-16T12:40:23;17.60;92.30
60039;DHT22;45916;52.734;6.544;2022-09-16T12:51:48;17.50;93.80
60039;DHT22;45916;52.734;6.544;2022-09-16T12:54:46;17.60;93.60
60039;DHT22;45916;52.734;6.544;2022-09-16T13:02:53;18.10;91.00
60039;DHT22;45916;52.734;6.544;2022-09-16T13:05:21;18.20;89.10
60039;DHT22;45916;52.734;6.544;2022-09-16T13:07:54;18.30;87.10
60039;DHT22;45916;52.734;6.544;2022-09-16T13:10:38;18.30;84.80
60039;DHT22;45916;52.734;6.544;2022-09-16T13:13:06;18.00;84.90
60039;DHT22;45916;52.734;6.544;2022-09-16T13:15:37;17.60;86.60
60039;DHT22;45916;52.734;6.544;2022-09-16T13:20:52;16.90;91.60
60039;DHT22;45916;52.734;6.544;2022-09-16T13:23:26;16.80;93.50
60039;DHT22;45916;52.734;6.544;2022-09-16T13:26:04;16.90;93.70
60039;DHT22;45916;52.734;6.544;2022-09-16T13:33:37;17.60;91.10
60039;DHT22;45916;52.734;6.544;2022-09-16T13:38:51;18.10;87.10
60039;DHT22;45916;52.734;6.544;2022-09-16T13:49:52;17.50;81.60
60039;DHT22;45916;52.734;6.544;2022-09-16T13:52:28;17.30;84.10
60039;DHT22;45916;52.734;6.544;2022-09-16T13:54:55;17.20;86.00
60039;DHT22;45916;52.734;6.544;2022-09-16T14:00:24;17.30;87.40
60039;DHT22;45916;52.734;6.544;2022-09-16T14:03:10;17.30;87.30
60039;DHT22;45916;52.734;6.544;2022-09-16T14:06:00;17.40;86.20
60039;DHT22;45916;52.734;6.544;2022-09-16T14:11:19;17.20;84.10
60039;DHT22;45916;52.734;6.544;2022-09-16T14:14:08;17.30;83.50
60039;DHT22;45916;52.734;6.544;2022-09-16T14:16:39;17.50;80.50
60039;DHT22;45916;52.734;6.544;2022-09-16T14:19:20;17.60;78.60
60039;DHT22;45916;52.734;6.544;2022-09-16T14:22:10;17.60;76.80
60039;DHT22;45916;52.734;6.544;2022-09-16T14:24:39;17.80;78.40
60039;DHT22;45916;52.734;6.544;2022-09-16T14:30:05;17.90;78.30
60039;DHT22;45916;52.734;6.544;2022-09-16T14:32:33;17.40;78.80
60039;DHT22;45916;52.734;6.544;2022-09-16T14:35:13;17.10;80.20
60039;DHT22;45916;52.734;6.544;2022-09-16T14:37:40;16.90;80.10
60039;DHT22;45916;52.734;6.544;2022-09-16T14:40:13;16.80;80.60
60039;DHT22;45916;52.734;6.544;2022-09-16T14:42:56;16.80;80.00
60039;DHT22;45916;52.734;6.544;2022-09-16T14:45:23;16.80;79.80
60039;DHT22;45916;52.734;6.544;2022-09-16T14:47:51;16.80;79.20
60039;DHT22;45916;52.734;6.544;2022-09-16T14:50:27;16.70;79.70
60039;DHT22;45916;52.734;6.544;2022-09-16T14:55:32;16.50;81.80
60039;DHT22;45916;52.734;6.544;2022-09-16T14:58:00;16.50;83.40
60039;DHT22;45916;52.734;6.544;2022-09-16T15:00:44;16.50;83.70
60039;DHT22;45916;52.734;6.544;2022-09-16T15:05:45;16.60;84.80
60039;DHT22;45916;52.734;6.544;2022-09-16T15:08:14;16.60;85.70
60039;DHT22;45916;52.734;6.544;2022-09-16T15:10:54;16.60;86.40
60039;DHT22;45916;52.734;6.544;2022-09-16T15:13:32;16.60;86.30
60039;DHT22;45916;52.734;6.544;2022-09-16T15:18:37;16.50;86.70
60039;DHT22;45916;52.734;6.544;2022-09-16T15:21:07;16.40;88.10
60039;DHT22;45916;52.734;6.544;2022-09-16T15:23:34;16.40;89.10
60039;DHT22;45916;52.734;6.544;2022-09-16T15:26:30;16.40;90.40
60039;DHT22;45916;52.734;6.544;2022-09-16T15:29:06;16.40;90.80
60039;DHT22;45916;52.734;6.544;2022-09-16T15:31:38;16.30;91.80
60039;DHT22;45916;52.734;6.544;2022-09-16T15:34:20;16.30;92.30
60039;DHT22;45916;52.734;6.544;2022-09-16T15:36:51;16.20;92.30
60039;DHT22;45916;52.734;6.544;2022-09-16T15:39:34;16.20;92.60
60039;DHT22;45916;52.734;6.544;2022-09-16T15:42:16;16.20;93.00
60039;DHT22;45916;52.734;6.544;2022-09-16T15:44:46;16.10;93.50
60039;DHT22;45916;52.734;6.544;2022-09-16T15:47:21;16.00;95.10
60039;DHT22;45916;52.734;6.544;2022-09-16T15:49:56;15.90;94.50
60039;DHT22;45916;52.734;6.544;2022-09-16T15:52:24;15.60;94.10
60039;DHT22;45916;52.734;6.544;2022-09-16T15:54:53;15.50;94.70
60039;DHT22;45916;52.734;6.544;2022-09-16T15:57:28;15.30;95.10
60039;DHT22;45916;52.734;6.544;2022-09-16T16:00:06;15.10;97.10
60039;DHT22;45916;52.734;6.544;2022-09-16T16:02:57;14.90;98.80
60039;DHT22;45916;52.734;6.544;2022-09-16T16:05:28;14.80;99.90
60039;DHT22;45916;52.734;6.544;2022-09-16T16:08:03;14.70;99.90
60039;DHT22;45916;52.734;6.544;2022-09-16T16:10:33;14.60;99.90
60039;DHT22;45916;52.734;6.544;2022-09-16T16:13:02;14.50;99.90
60039;DHT22;45916;52.734;6.544;2022-09-16T16:15:35;14.30;99.90
60039;DHT22;45916;52.734;6.544;2022-09-16T16:18:05;14.20;99.90
60039;DHT22;45916;52.734;6.544;2022-09-16T16:20:32;14.10;99.90
60039;DHT22;45916;52.734;6.544;2022-09-16T16:22:59;14.00;99.90
60039;DHT22;45916;52.734;6.544;2022-09-16T16:25:25;13.90;99.90
60039;DHT22;45916;52.734;6.544;2022-09-16T16:27:51;13.70;99.90
60039;DHT22;45916;52.734;6.544;2022-09-16T16:30:17;13.70;99.90
60039;DHT22;45916;52.734;6.544;2022-09-16T16:32:43;13.60;99.90
60039;DHT22;45916;52.734;6.544;2022-09-16T16:35:10;13.60;99.90
60039;DHT22;45916;52.734;6.544;2022-09-16T16:37:36;13.70;99.90
60039;DHT22;45916;52.734;6.544;2022-09-16T16:40:04;13.70;99.90
60039;DHT22;45916;52.734;6.544;2022-09-16T16:42:30;13.70;99.90
60039;DHT22;45916;52.734;6.544;2022-09-16T16:44:56;13.60;99.90
60039;DHT22;45916;52.734;6.544;2022-09-16T16:47:22;13.60;99.90
60039;DHT22;45916;52.734;6.544;2022-09-16T16:49:48;13.50;99.90
60039;DHT22;45916;52.734;6.544;2022-09-16T16:52:15;13.40;99.90
60039;DHT22;45916;52.734;6.544;2022-09-16T16:54:41;13.30;99.90
60039;DHT22;45916;52.734;6.544;2022-09-16T16:57:09;13.30;99.90
60039;DHT22;45916;52.734;6.544;2022-09-16T16:59:35;13.30;99.90
60039;DHT22;45916;52.734;6.544;2022-09-16T17:02:01;13.30;99.90
60039;DHT22;45916;52.734;6.544;2022-09-16T17:04:29;13.20;99.90
60039;DHT22;45916;52.734;6.544;2022-09-16T17:06:55;13.20;99.90
60039;DHT22;45916;52.734;6.544;2022-09-16T17:09:22;13.10;99.90
60039;DHT22;45916;52.734;6.544;2022-09-16T17:11:56;13.20;99.90
60039;DHT22;45916;52.734;6.544;2022-09-16T17:14:24;13.10;99.90
60039;DHT22;45916;52.734;6.544;2022-09-16T17:16:50;13.10;99.90
60039;DHT22;45916;52.734;6.544;2022-09-16T17:19:17;13.00;99.90
60039;DHT22;45916;52.734;6.544;2022-09-16T17:21:44;12.90;99.90
60039;DHT22;45916;52.734;6.544;2022-09-16T17:24:11;12.90;99.90
60039;DHT22;45916;52.734;6.544;2022-09-16T17:26:36;12.80;99.90
60039;DHT22;45916;52.734;6.544;2022-09-16T17:29:02;12.80;99.90
60039;DHT22;45916;52.734;6.544;2022-09-16T17:31:30;12.70;99.90
60039;DHT22;45916;52.734;6.544;2022-09-16T17:33:59;12.70;99.90
60039;DHT22;45916;52.734;6.544;2022-09-16T17:36:31;12.70;99.90
60039;DHT22;45916;52.734;6.544;2022-09-16T17:39:00;12.80;99.90
60039;DHT22;45916;52.734;6.544;2022-09-16T17:41:26;12.90;99.90
60039;DHT22;45916;52.734;6.544;2022-09-16T17:43:53;12.90;99.90
60039;DHT22;45916;52.734;6.544;2022-09-16T17:46:20;12.90;99.90
60039;DHT22;45916;52.734;6.544;2022-09-16T17:48:48;12.90;99.90
60039;DHT22;45916;52.734;6.544;2022-09-16T17:51:14;12.80;99.90
60039;DHT22;45916;52.734;6.544;2022-09-16T17:53:40;12.80;99.90
60039;DHT22;45916;52.734;6.544;2022-09-16T17:56:08;12.80;99.90
60039;DHT22;45916;52.734;6.544;2022-09-16T17:58:35;12.80;99.90
60039;DHT22;45916;52.734;6.544;2022-09-16T18:01:13;12.70;99.90
60039;DHT22;45916;52.734;6.544;2022-09-16T18:03:41;12.70;99.90
60039;DHT22;45916;52.734;6.544;2022-09-16T18:06:09;12.60;99.90
60039;DHT22;45916;52.734;6.544;2022-09-16T18:08:35;12.60;99.90
60039;DHT22;45916;52.734;6.544;2022-09-16T18:11:02;12.60;99.90
60039;DHT22;45916;52.734;6.544;2022-09-16T18:13:28;12.60;99.90
60039;DHT22;45916;52.734;6.544;2022-09-16T18:15:54;12.60;99.90
60039;DHT22;45916;52.734;6.544;2022-09-16T18:18:20;12.50;99.90
60039;DHT22;45916;52.734;6.544;2022-09-16T18:20:53;12.50;99.90
60039;DHT22;45916;52.734;6.544;2022-09-16T18:23:20;12.40;99.90
60039;DHT22;45916;52.734;6.544;2022-09-16T18:25:46;12.40;99.90
60039;DHT22;45916;52.734;6.544;2022-09-16T18:28:12;12.40;99.90
60039;DHT22;45916;52.734;6.544;2022-09-16T18:30:38;12.40;99.90
60039;DHT22;45916;52.734;6.544;2022-09-16T18:33:04;12.40;99.90
60039;DHT22;45916;52.734;6.544;2022-09-16T18:35:30;12.40;99.90
60039;DHT22;45916;52.734;6.544;2022-09-16T18:37:56;12.30;99.90
60039;DHT22;45916;52.734;6.544;2022-09-16T18:40:22;12.30;99.90
60039;DHT22;45916;52.734;6.544;2022-09-16T18:42:47;12.30;99.90
60039;DHT22;45916;52.734;6.544;2022-09-16T18:45:13;12.40;99.90
60039;DHT22;45916;52.734;6.544;2022-09-16T18:47:39;12.50;99.90
60039;DHT22;45916;52.734;6.544;2022-09-16T18:50:05;12.50;99.90
60039;DHT22;45916;52.734;6.544;2022-09-16T18:52:31;12.60;99.90
60039;DHT22;45916;52.734;6.544;2022-09-16T18:54:56;12.60;99.90
60039;DHT22;45916;52.734;6.544;2022-09-16T18:57:22;12.60;99.90
60039;DHT22;45916;52.734;6.544;2022-09-16T18:59:48;12.60;99.90
60039;DHT22;45916;52.734;6.544;2022-09-16T19:02:14;12.60;99.90
60039;DHT22;45916;52.734;6.544;2022-09-16T19:04:41;12.60;99.90
60039;DHT22;45916;52.734;6.544;2022-09-16T19:07:10;12.60;99.90
60039;DHT22;45916;52.734;6.544;2022-09-16T19:09:37;12.60;99.90
60039;DHT22;45916;52.734;6.544;2022-09-16T19:12:06;12.60;99.90
60039;DHT22;45916;52.734;6.544;2022-09-16T19:14:32;12.60;99.90
60039;DHT22;45916;52.734;6.544;2022-09-16T19:16:58;12.70;99.90
60039;DHT22;45916;52.734;6.544;2022-09-16T19:19:24;12.70;99.90
60039;DHT22;45916;52.734;6.544;2022-09-16T19:21:50;12.70;99.90
60039;DHT22;45916;52.734;6.544;2022-09-16T19:24:18;12.60;99.90
60039;DHT22;45916;52.734;6.544;2022-09-16T19:26:44;12.60;99.90
60039;DHT22;45916;52.734;6.544;2022-09-16T19:29:11;12.70;99.90
60039;DHT22;45916;52.734;6.544;2022-09-16T19:31:39;12.60;99.90
60039;DHT22;45916;52.734;6.544;2022-09-16T19:34:06;12.60;99.90
60039;DHT22;45916;52.734;6.544;2022-09-16T19:36:33;12.60;99.90
60039;DHT22;45916;52.734;6.544;2022-09-16T19:38:59;12.60;99.90